ěÝzenÝ letovÚho provozu ╚eskÚ republiky
Letiste: LKCV Aktualizace: 07.04.2020 02:30:26  UTC
 METAR LKCV 07.04. 02:30 ...
METAR LKCV 070230Z 12006KT CAVOK 09/M05 Q1029 NOSIG RMK BLU BLU=
 TAF LKCV 06.04. 23:00 ...
TAF LKCV 062300Z 0700/0800 15012KT CAVOK      BECMG 0704/0706 14007KT=